sensor_id;sensor_type;location;lat;lon;timestamp;pressure;altitude;pressure_sealevel;temperature;humidity
79376;BME280;68846;53.150;18.136;2023-04-24T00:01:06;100109.95;;;14.18;71.90
79376;BME280;68846;53.150;18.136;2023-04-24T00:03:33;100110.55;;;14.14;72.15
79376;BME280;68846;53.150;18.136;2023-04-24T00:05:59;100105.53;;;14.04;72.32
79376;BME280;68846;53.150;18.136;2023-04-24T00:08:26;100103.63;;;14.00;72.18
79376;BME280;68846;53.150;18.136;2023-04-24T00:10:52;100111.77;;;14.00;72.37
79376;BME280;68846;53.150;18.136;2023-04-24T00:13:18;100109.27;;;14.03;72.24
79376;BME280;68846;53.150;18.136;2023-04-24T00:15:45;100106.20;;;14.07;72.42
79376;BME280;68846;53.150;18.136;2023-04-24T00:18:11;100100.89;;;14.07;72.56
79376;BME280;68846;53.150;18.136;2023-04-24T00:20:37;100093.05;;;13.97;72.81
79376;BME280;68846;53.150;18.136;2023-04-24T00:23:03;100090.79;;;13.95;72.92
79376;BME280;68846;53.150;18.136;2023-04-24T00:25:29;100082.73;;;13.87;73.15
79376;BME280;68846;53.150;18.136;2023-04-24T00:27:55;100085.41;;;13.85;73.15
79376;BME280;68846;53.150;18.136;2023-04-24T00:30:21;100077.86;;;13.80;73.03
79376;BME280;68846;53.150;18.136;2023-04-24T00:32:48;100080.82;;;13.83;73.01
79376;BME280;68846;53.150;18.136;2023-04-24T00:35:14;100084.98;;;13.90;73.01
79376;BME280;68846;53.150;18.136;2023-04-24T00:37:42;100074.22;;;13.88;72.66
79376;BME280;68846;53.150;18.136;2023-04-24T00:40:09;100081.02;;;13.96;72.61
79376;BME280;68846;53.150;18.136;2023-04-24T00:42:36;100079.95;;;13.96;72.70
79376;BME280;68846;53.150;18.136;2023-04-24T00:45:04;100071.82;;;13.95;73.15
79376;BME280;68846;53.150;18.136;2023-04-24T00:47:32;100055.48;;;13.86;73.25
79376;BME280;68846;53.150;18.136;2023-04-24T00:50:04;100060.63;;;13.85;73.33
79376;BME280;68846;53.150;18.136;2023-04-24T00:52:31;100063.46;;;13.84;73.05
79376;BME280;68846;53.150;18.136;2023-04-24T00:54:58;100063.27;;;13.85;73.20
79376;BME280;68846;53.150;18.136;2023-04-24T00:57:25;100063.42;;;13.88;73.17
79376;BME280;68846;53.150;18.136;2023-04-24T00:59:52;100063.91;;;13.92;73.06
79376;BME280;68846;53.150;18.136;2023-04-24T01:02:19;100071.65;;;13.95;72.87
79376;BME280;68846;53.150;18.136;2023-04-24T01:04:47;100073.40;;;13.97;73.01
79376;BME280;68846;53.150;18.136;2023-04-24T01:07:13;100074.11;;;13.99;73.10
79376;BME280;68846;53.150;18.136;2023-04-24T01:09:40;100072.20;;;13.94;72.98
79376;BME280;68846;53.150;18.136;2023-04-24T01:12:10;100067.46;;;13.91;73.08
79376;BME280;68846;53.150;18.136;2023-04-24T01:14:37;100065.14;;;13.92;73.16
79376;BME280;68846;53.150;18.136;2023-04-24T01:17:04;100062.78;;;13.96;72.89
79376;BME280;68846;53.150;18.136;2023-04-24T01:19:30;100050.08;;;13.94;73.05
79376;BME280;68846;53.150;18.136;2023-04-24T01:21:58;100053.95;;;13.96;72.93
79376;BME280;68846;53.150;18.136;2023-04-24T01:24:25;100060.60;;;14.01;73.03
79376;BME280;68846;53.150;18.136;2023-04-24T01:26:51;100054.22;;;14.02;73.26
79376;BME280;68846;53.150;18.136;2023-04-24T01:29:19;100051.19;;;14.03;73.16
79376;BME280;68846;53.150;18.136;2023-04-24T01:31:45;100045.72;;;14.02;73.25
79376;BME280;68846;53.150;18.136;2023-04-24T01:34:12;100043.83;;;13.98;73.31
79376;BME280;68846;53.150;18.136;2023-04-24T01:36:38;100043.02;;;13.92;73.33
79376;BME280;68846;53.150;18.136;2023-04-24T01:39:05;100045.20;;;13.88;73.23
79376;BME280;68846;53.150;18.136;2023-04-24T01:41:33;100039.23;;;13.83;73.31
79376;BME280;68846;53.150;18.136;2023-04-24T01:44:00;100047.45;;;13.92;73.22
79376;BME280;68846;53.150;18.136;2023-04-24T01:46:27;100045.83;;;13.94;73.01
79376;BME280;68846;53.150;18.136;2023-04-24T01:48:53;100042.63;;;13.95;73.22
79376;BME280;68846;53.150;18.136;2023-04-24T01:51:20;100047.40;;;13.95;72.99
79376;BME280;68846;53.150;18.136;2023-04-24T01:53:46;100047.95;;;13.93;73.23
79376;BME280;68846;53.150;18.136;2023-04-24T01:56:13;100044.61;;;13.92;73.26
79376;BME280;68846;53.150;18.136;2023-04-24T01:58:40;100044.44;;;13.91;73.29
79376;BME280;68846;53.150;18.136;2023-04-24T02:01:06;100039.66;;;13.92;72.96
79376;BME280;68846;53.150;18.136;2023-04-24T02:03:32;100038.23;;;13.91;73.47
79376;BME280;68846;53.150;18.136;2023-04-24T02:05:59;100041.25;;;13.92;73.38
79376;BME280;68846;53.150;18.136;2023-04-24T02:08:25;100038.55;;;13.95;73.35
79376;BME280;68846;53.150;18.136;2023-04-24T02:10:51;100031.98;;;13.99;73.36
79376;BME280;68846;53.150;18.136;2023-04-24T02:13:18;100033.89;;;14.00;73.35
79376;BME280;68846;53.150;18.136;2023-04-24T02:15:45;100026.78;;;14.01;73.32
79376;BME280;68846;53.150;18.136;2023-04-24T02:18:11;100030.66;;;14.02;73.38
79376;BME280;68846;53.150;18.136;2023-04-24T02:20:38;100025.17;;;14.02;73.34
79376;BME280;68846;53.150;18.136;2023-04-24T02:23:04;100010.42;;;13.94;73.45
79376;BME280;68846;53.150;18.136;2023-04-24T02:25:30;100026.02;;;14.06;73.28
79376;BME280;68846;53.150;18.136;2023-04-24T02:27:56;100023.15;;;14.08;73.22
79376;BME280;68846;53.150;18.136;2023-04-24T02:30:22;100018.17;;;14.09;73.35
79376;BME280;68846;53.150;18.136;2023-04-24T02:32:48;100015.55;;;14.06;73.12
79376;BME280;68846;53.150;18.136;2023-04-24T02:35:15;99996.60;;;13.94;73.37
79376;BME280;68846;53.150;18.136;2023-04-24T02:37:41;100007.33;;;14.00;73.39
79376;BME280;68846;53.150;18.136;2023-04-24T02:40:11;100008.26;;;13.97;73.36
79376;BME280;68846;53.150;18.136;2023-04-24T02:42:37;100009.86;;;13.96;73.31
79376;BME280;68846;53.150;18.136;2023-04-24T02:45:04;100008.80;;;13.96;73.31
79376;BME280;68846;53.150;18.136;2023-04-24T02:47:31;100005.28;;;13.95;73.23
79376;BME280;68846;53.150;18.136;2023-04-24T02:49:59;100004.92;;;13.95;73.54
79376;BME280;68846;53.150;18.136;2023-04-24T02:52:25;99993.99;;;13.92;73.16
79376;BME280;68846;53.150;18.136;2023-04-24T02:54:51;99997.11;;;13.96;73.42
79376;BME280;68846;53.150;18.136;2023-04-24T02:57:17;99997.51;;;13.93;73.46
79376;BME280;68846;53.150;18.136;2023-04-24T02:59:43;99993.24;;;13.94;73.63
79376;BME280;68846;53.150;18.136;2023-04-24T03:02:09;99992.88;;;13.95;73.67
79376;BME280;68846;53.150;18.136;2023-04-24T03:04:36;99996.55;;;13.98;73.56
79376;BME280;68846;53.150;18.136;2023-04-24T03:07:02;99994.73;;;14.02;73.40
79376;BME280;68846;53.150;18.136;2023-04-24T03:09:28;99983.81;;;13.99;73.56
79376;BME280;68846;53.150;18.136;2023-04-24T03:11:54;99991.48;;;14.06;73.36
79376;BME280;68846;53.150;18.136;2023-04-24T03:14:21;99994.33;;;14.06;73.27
79376;BME280;68846;53.150;18.136;2023-04-24T03:16:48;99997.73;;;14.03;73.26
79376;BME280;68846;53.150;18.136;2023-04-24T03:19:16;100002.17;;;14.01;73.48
79376;BME280;68846;53.150;18.136;2023-04-24T03:21:52;100001.33;;;13.99;73.40
79376;BME280;68846;53.150;18.136;2023-04-24T03:24:18;99982.20;;;13.87;73.18
79376;BME280;68846;53.150;18.136;2023-04-24T03:26:44;99996.04;;;13.97;73.35
79376;BME280;68846;53.150;18.136;2023-04-24T03:29:19;99994.98;;;13.96;73.38
79376;BME280;68846;53.150;18.136;2023-04-24T03:31:45;99993.60;;;13.94;73.22
79376;BME280;68846;53.150;18.136;2023-04-24T03:34:12;99999.78;;;13.95;73.19
79376;BME280;68846;53.150;18.136;2023-04-24T03:36:38;100001.73;;;13.95;73.00
79376;BME280;68846;53.150;18.136;2023-04-24T03:39:05;100006.68;;;13.96;73.05
79376;BME280;68846;53.150;18.136;2023-04-24T03:41:34;100011.83;;;13.95;73.00
79376;BME280;68846;53.150;18.136;2023-04-24T03:44:22;100022.81;;;13.94;73.15
79376;BME280;68846;53.150;18.136;2023-04-24T03:46:49;100025.85;;;13.92;72.97
79376;BME280;68846;53.150;18.136;2023-04-24T03:49:16;100023.91;;;13.92;72.94
79376;BME280;68846;53.150;18.136;2023-04-24T03:51:43;100018.77;;;13.92;72.94
79376;BME280;68846;53.150;18.136;2023-04-24T03:54:15;100016.30;;;13.91;72.86
79376;BME280;68846;53.150;18.136;2023-04-24T03:56:41;100014.00;;;13.91;73.01
79376;BME280;68846;53.150;18.136;2023-04-24T03:59:08;100013.36;;;13.87;73.21
79376;BME280;68846;53.150;18.136;2023-04-24T04:01:35;100005.81;;;13.81;73.39
79376;BME280;68846;53.150;18.136;2023-04-24T04:04:10;100008.24;;;13.85;73.42
79376;BME280;68846;53.150;18.136;2023-04-24T04:06:36;100008.41;;;13.85;73.67
79376;BME280;68846;53.150;18.136;2023-04-24T04:09:03;100002.41;;;13.86;73.59
79376;BME280;68846;53.150;18.136;2023-04-24T04:11:29;99996.55;;;13.85;73.98
79376;BME280;68846;53.150;18.136;2023-04-24T04:13:56;99990.73;;;13.84;74.05
79376;BME280;68846;53.150;18.136;2023-04-24T04:16:22;99986.84;;;13.83;74.21
79376;BME280;68846;53.150;18.136;2023-04-24T04:18:51;99985.83;;;13.80;74.12
79376;BME280;68846;53.150;18.136;2023-04-24T04:21:18;99983.70;;;13.81;74.50
79376;BME280;68846;53.150;18.136;2023-04-24T04:23:44;99983.88;;;13.81;74.47
79376;BME280;68846;53.150;18.136;2023-04-24T04:26:17;99985.65;;;13.80;74.26
79376;BME280;68846;53.150;18.136;2023-04-24T04:29:05;99974.77;;;13.73;74.49
79376;BME280;68846;53.150;18.136;2023-04-24T04:31:33;99985.48;;;13.79;74.29
79376;BME280;68846;53.150;18.136;2023-04-24T04:34:02;99979.52;;;13.76;74.64
79376;BME280;68846;53.150;18.136;2023-04-24T04:36:28;99983.12;;;13.84;74.81
79376;BME280;68846;53.150;18.136;2023-04-24T04:38:59;99985.20;;;13.88;74.88
79376;BME280;68846;53.150;18.136;2023-04-24T04:41:46;99979.13;;;13.91;74.55
79376;BME280;68846;53.150;18.136;2023-04-24T04:44:16;99977.89;;;13.90;74.52
79376;BME280;68846;53.150;18.136;2023-04-24T04:46:42;99978.60;;;13.90;74.63
79376;BME280;68846;53.150;18.136;2023-04-24T04:49:38;99979.64;;;13.92;74.81
79376;BME280;68846;53.150;18.136;2023-04-24T04:52:07;99983.34;;;13.94;74.92
79376;BME280;68846;53.150;18.136;2023-04-24T04:54:34;99979.60;;;13.96;74.98
79376;BME280;68846;53.150;18.136;2023-04-24T04:57:01;99980.13;;;13.96;75.01
79376;BME280;68846;53.150;18.136;2023-04-24T04:59:27;99967.79;;;13.92;74.76
79376;BME280;68846;53.150;18.136;2023-04-24T05:01:59;99965.13;;;13.94;74.83
79376;BME280;68846;53.150;18.136;2023-04-24T05:04:25;99968.86;;;14.03;74.90
79376;BME280;68846;53.150;18.136;2023-04-24T05:06:52;99965.26;;;14.08;74.91
79376;BME280;68846;53.150;18.136;2023-04-24T05:09:19;99960.59;;;14.12;74.45
79376;BME280;68846;53.150;18.136;2023-04-24T05:11:55;99955.75;;;14.16;74.34
79376;BME280;68846;53.150;18.136;2023-04-24T05:14:22;99955.49;;;14.22;74.61
79376;BME280;68846;53.150;18.136;2023-04-24T05:16:48;99952.04;;;14.28;74.56
79376;BME280;68846;53.150;18.136;2023-04-24T05:19:15;99946.55;;;14.27;74.83
79376;BME280;68846;53.150;18.136;2023-04-24T05:21:42;99956.67;;;14.36;74.65
79376;BME280;68846;53.150;18.136;2023-04-24T05:24:09;99953.09;;;14.39;74.43
79376;BME280;68846;53.150;18.136;2023-04-24T05:26:44;99958.00;;;14.42;74.00
79376;BME280;68846;53.150;18.136;2023-04-24T05:29:12;99960.27;;;14.44;73.80
79376;BME280;68846;53.150;18.136;2023-04-24T05:31:38;99952.46;;;14.43;73.99
79376;BME280;68846;53.150;18.136;2023-04-24T05:34:04;99953.29;;;14.38;73.88
79376;BME280;68846;53.150;18.136;2023-04-24T05:36:31;99950.15;;;14.33;73.86
79376;BME280;68846;53.150;18.136;2023-04-24T05:38:57;99950.52;;;14.33;74.16
79376;BME280;68846;53.150;18.136;2023-04-24T05:41:24;99952.75;;;14.38;74.21
79376;BME280;68846;53.150;18.136;2023-04-24T05:43:50;99952.30;;;14.43;73.88
79376;BME280;68846;53.150;18.136;2023-04-24T05:46:16;99948.90;;;14.48;73.67
79376;BME280;68846;53.150;18.136;2023-04-24T05:48:43;99947.24;;;14.52;73.48
79376;BME280;68846;53.150;18.136;2023-04-24T05:51:10;99950.00;;;14.57;73.11
79376;BME280;68846;53.150;18.136;2023-04-24T05:53:37;99953.81;;;14.61;73.41
79376;BME280;68846;53.150;18.136;2023-04-24T05:56:04;99948.79;;;14.65;73.52
79376;BME280;68846;53.150;18.136;2023-04-24T05:58:30;99947.30;;;14.69;73.26
79376;BME280;68846;53.150;18.136;2023-04-24T06:00:57;99952.04;;;14.71;73.16
79376;BME280;68846;53.150;18.136;2023-04-24T06:03:24;99934.38;;;14.68;72.95
79376;BME280;68846;53.150;18.136;2023-04-24T06:05:50;99946.56;;;14.80;72.94
79376;BME280;68846;53.150;18.136;2023-04-24T06:08:17;99942.44;;;14.83;72.83
79376;BME280;68846;53.150;18.136;2023-04-24T06:10:44;99954.15;;;14.92;72.81
79376;BME280;68846;53.150;18.136;2023-04-24T06:13:10;99950.98;;;14.91;72.79
79376;BME280;68846;53.150;18.136;2023-04-24T06:15:38;99953.51;;;14.97;72.72
79376;BME280;68846;53.150;18.136;2023-04-24T06:18:10;99948.52;;;15.00;72.81
79376;BME280;68846;53.150;18.136;2023-04-24T06:20:37;99931.29;;;14.91;72.73
79376;BME280;68846;53.150;18.136;2023-04-24T06:23:03;99945.79;;;15.03;72.42
79376;BME280;68846;53.150;18.136;2023-04-24T06:25:30;99940.95;;;15.05;72.45
79376;BME280;68846;53.150;18.136;2023-04-24T06:27:57;99943.73;;;15.09;72.22
79376;BME280;68846;53.150;18.136;2023-04-24T06:30:23;99940.83;;;15.12;72.19
79376;BME280;68846;53.150;18.136;2023-04-24T06:32:50;99932.09;;;15.14;72.07
79376;BME280;68846;53.150;18.136;2023-04-24T06:35:16;99930.13;;;15.15;72.15
79376;BME280;68846;53.150;18.136;2023-04-24T06:37:42;99932.75;;;15.17;72.06
79376;BME280;68846;53.150;18.136;2023-04-24T06:40:09;99919.34;;;15.14;72.23
79376;BME280;68846;53.150;18.136;2023-04-24T06:42:36;99926.98;;;15.22;72.30
79376;BME280;68846;53.150;18.136;2023-04-24T06:45:03;99924.74;;;15.27;71.88
79376;BME280;68846;53.150;18.136;2023-04-24T06:47:31;99913.78;;;15.26;71.86
79376;BME280;68846;53.150;18.136;2023-04-24T06:49:58;99925.46;;;15.35;71.86
79376;BME280;68846;53.150;18.136;2023-04-24T06:52:24;99914.34;;;15.33;71.63
79376;BME280;68846;53.150;18.136;2023-04-24T06:54:51;99914.70;;;15.32;71.39
79376;BME280;68846;53.150;18.136;2023-04-24T06:57:18;99925.11;;;15.36;71.30
79376;BME280;68846;53.150;18.136;2023-04-24T06:59:44;99917.06;;;15.31;71.38
79376;BME280;68846;53.150;18.136;2023-04-24T07:02:11;99916.36;;;15.38;71.30
79376;BME280;68846;53.150;18.136;2023-04-24T07:04:37;99919.62;;;15.43;71.20
79376;BME280;68846;53.150;18.136;2023-04-24T07:07:03;99920.39;;;15.49;71.28
79376;BME280;68846;53.150;18.136;2023-04-24T07:09:30;99920.60;;;15.55;70.96
79376;BME280;68846;53.150;18.136;2023-04-24T07:11:57;99923.32;;;15.61;70.91
79376;BME280;68846;53.150;18.136;2023-04-24T07:14:23;99918.40;;;15.68;71.07
79376;BME280;68846;53.150;18.136;2023-04-24T07:16:49;99906.80;;;15.70;70.90
79376;BME280;68846;53.150;18.136;2023-04-24T07:19:15;99911.80;;;15.78;70.30
79376;BME280;68846;53.150;18.136;2023-04-24T07:21:41;99910.83;;;15.81;70.10
79376;BME280;68846;53.150;18.136;2023-04-24T07:24:07;99908.40;;;15.87;70.25
79376;BME280;68846;53.150;18.136;2023-04-24T07:26:38;99904.15;;;15.94;70.04
79376;BME280;68846;53.150;18.136;2023-04-24T07:29:06;99903.65;;;16.00;69.81
79376;BME280;68846;53.150;18.136;2023-04-24T07:31:33;99906.67;;;16.07;68.97
79376;BME280;68846;53.150;18.136;2023-04-24T07:34:00;99904.60;;;16.12;68.45
79376;BME280;68846;53.150;18.136;2023-04-24T07:36:26;99905.70;;;16.18;68.35
79376;BME280;68846;53.150;18.136;2023-04-24T07:38:54;99906.63;;;16.24;67.93
79376;BME280;68846;53.150;18.136;2023-04-24T07:41:20;99907.63;;;16.27;67.53
79376;BME280;68846;53.150;18.136;2023-04-24T07:43:47;99909.17;;;16.28;67.66
79376;BME280;68846;53.150;18.136;2023-04-24T07:46:13;99909.52;;;16.29;67.01
79376;BME280;68846;53.150;18.136;2023-04-24T07:48:39;99900.91;;;16.25;66.54
79376;BME280;68846;53.150;18.136;2023-04-24T07:51:05;99904.84;;;16.24;66.35
79376;BME280;68846;53.150;18.136;2023-04-24T07:53:31;99906.63;;;16.31;66.32
79376;BME280;68846;53.150;18.136;2023-04-24T07:55:58;99904.98;;;16.33;66.38
79376;BME280;68846;53.150;18.136;2023-04-24T07:58:24;99901.89;;;16.35;66.25
79376;BME280;68846;53.150;18.136;2023-04-24T08:00:51;99896.48;;;16.39;66.11
79376;BME280;68846;53.150;18.136;2023-04-24T08:03:17;99899.20;;;16.44;66.47
79376;BME280;68846;53.150;18.136;2023-04-24T08:05:45;99899.02;;;16.50;65.78
79376;BME280;68846;53.150;18.136;2023-04-24T08:08:12;99900.95;;;16.58;65.55
79376;BME280;68846;53.150;18.136;2023-04-24T08:10:38;99902.28;;;16.69;64.97
79376;BME280;68846;53.150;18.136;2023-04-24T08:13:04;99900.85;;;16.77;64.55
79376;BME280;68846;53.150;18.136;2023-04-24T08:15:30;99900.63;;;16.85;64.88
79376;BME280;68846;53.150;18.136;2023-04-24T08:17:57;99900.66;;;16.91;63.75
79376;BME280;68846;53.150;18.136;2023-04-24T08:20:23;99904.08;;;16.95;63.27
79376;BME280;68846;53.150;18.136;2023-04-24T08:22:50;99905.94;;;16.99;63.48
79376;BME280;68846;53.150;18.136;2023-04-24T08:25:16;99909.02;;;17.03;63.06
79376;BME280;68846;53.150;18.136;2023-04-24T08:27:44;99904.36;;;17.05;63.01
79376;BME280;68846;53.150;18.136;2023-04-24T08:30:10;99894.98;;;17.02;62.88
79376;BME280;68846;53.150;18.136;2023-04-24T08:32:37;99905.30;;;17.09;62.62
79376;BME280;68846;53.150;18.136;2023-04-24T08:35:04;99900.14;;;17.09;62.17
79376;BME280;68846;53.150;18.136;2023-04-24T08:37:30;99897.83;;;17.09;61.75
79376;BME280;68846;53.150;18.136;2023-04-24T08:39:57;99895.33;;;17.09;61.73
79376;BME280;68846;53.150;18.136;2023-04-24T08:42:23;99894.98;;;17.09;61.12
79376;BME280;68846;53.150;18.136;2023-04-24T08:44:50;99894.81;;;17.09;60.96
79376;BME280;68846;53.150;18.136;2023-04-24T08:47:16;99892.81;;;17.10;61.20
79376;BME280;68846;53.150;18.136;2023-04-24T08:49:43;99893.95;;;17.14;60.83
79376;BME280;68846;53.150;18.136;2023-04-24T08:52:09;99891.89;;;17.18;60.84
79376;BME280;68846;53.150;18.136;2023-04-24T08:54:36;99883.39;;;17.17;60.87
79376;BME280;68846;53.150;18.136;2023-04-24T08:57:03;99890.95;;;17.25;60.80
79376;BME280;68846;53.150;18.136;2023-04-24T08:59:31;99890.56;;;17.27;60.34
79376;BME280;68846;53.150;18.136;2023-04-24T09:01:57;99895.16;;;17.28;60.53
79376;BME280;68846;53.150;18.136;2023-04-24T09:04:24;99897.66;;;17.28;60.28
79376;BME280;68846;53.150;18.136;2023-04-24T09:06:55;99898.10;;;17.24;60.07
79376;BME280;68846;53.150;18.136;2023-04-24T09:09:23;99909.62;;;17.26;59.72
79376;BME280;68846;53.150;18.136;2023-04-24T09:11:51;99900.00;;;17.20;59.45
79376;BME280;68846;53.150;18.136;2023-04-24T09:14:19;99902.16;;;17.25;59.80
79376;BME280;68846;53.150;18.136;2023-04-24T09:16:46;99902.36;;;17.25;59.37
79376;BME280;68846;53.150;18.136;2023-04-24T09:19:13;99902.48;;;17.20;59.83
79376;BME280;68846;53.150;18.136;2023-04-24T09:21:39;99909.15;;;17.24;59.54
79376;BME280;68846;53.150;18.136;2023-04-24T09:24:18;99912.81;;;17.20;59.48
79376;BME280;68846;53.150;18.136;2023-04-24T09:26:44;99911.20;;;17.14;59.38
79376;BME280;68846;53.150;18.136;2023-04-24T09:29:18;99908.00;;;17.08;59.51
79376;BME280;68846;53.150;18.136;2023-04-24T09:31:45;99910.30;;;17.02;59.69
79376;BME280;68846;53.150;18.136;2023-04-24T09:34:11;99902.65;;;16.96;60.33
79376;BME280;68846;53.150;18.136;2023-04-24T09:36:40;99895.46;;;16.85;61.17
79376;BME280;68846;53.150;18.136;2023-04-24T09:39:09;99902.23;;;16.85;61.28
79376;BME280;68846;53.150;18.136;2023-04-24T09:41:53;99895.91;;;16.82;61.68
79376;BME280;68846;53.150;18.136;2023-04-24T09:44:22;99891.79;;;16.83;61.67
79376;BME280;68846;53.150;18.136;2023-04-24T09:46:56;99889.20;;;16.87;61.35
79376;BME280;68846;53.150;18.136;2023-04-24T09:49:30;99880.45;;;16.95;61.67
79376;BME280;68846;53.150;18.136;2023-04-24T09:52:05;99864.83;;;16.94;61.75
79376;BME280;68846;53.150;18.136;2023-04-24T09:54:32;99873.00;;;17.12;61.61
79376;BME280;68846;53.150;18.136;2023-04-24T09:56:59;99873.91;;;17.24;61.26
79376;BME280;68846;53.150;18.136;2023-04-24T09:59:26;99868.77;;;17.36;60.73
79376;BME280;68846;53.150;18.136;2023-04-24T10:01:52;99857.38;;;17.48;60.74
79376;BME280;68846;53.150;18.136;2023-04-24T10:04:26;99853.59;;;17.60;59.92
79376;BME280;68846;53.150;18.136;2023-04-24T10:06:55;99848.08;;;17.73;59.32
79376;BME280;68846;53.150;18.136;2023-04-24T10:09:24;99857.38;;;17.94;59.64
79376;BME280;68846;53.150;18.136;2023-04-24T10:11:53;99853.51;;;18.09;58.63
79376;BME280;68846;53.150;18.136;2023-04-24T10:14:22;99852.41;;;18.14;57.92
79376;BME280;68846;53.150;18.136;2023-04-24T10:16:49;99847.34;;;18.17;57.09
79376;BME280;68846;53.150;18.136;2023-04-24T10:19:16;99835.89;;;18.13;57.49
79376;BME280;68846;53.150;18.136;2023-04-24T10:21:45;99842.94;;;18.21;57.75
79376;BME280;68846;53.150;18.136;2023-04-24T10:24:18;99844.49;;;18.22;57.24
79376;BME280;68846;53.150;18.136;2023-04-24T10:26:47;99846.83;;;18.22;57.31
79376;BME280;68846;53.150;18.136;2023-04-24T10:29:18;99847.39;;;18.21;56.77
79376;BME280;68846;53.150;18.136;2023-04-24T10:31:44;99846.17;;;18.20;56.89
79376;BME280;68846;53.150;18.136;2023-04-24T10:34:11;99843.23;;;18.23;57.42
79376;BME280;68846;53.150;18.136;2023-04-24T10:36:43;99843.23;;;18.29;57.04
79376;BME280;68846;53.150;18.136;2023-04-24T10:39:13;99844.08;;;18.34;56.70
79376;BME280;68846;53.150;18.136;2023-04-24T10:41:41;99842.27;;;18.40;56.47
79376;BME280;68846;53.150;18.136;2023-04-24T10:44:12;99850.08;;;18.47;56.40
79376;BME280;68846;53.150;18.136;2023-04-24T10:46:43;99839.52;;;18.48;55.83
79376;BME280;68846;53.150;18.136;2023-04-24T10:49:09;99853.95;;;18.59;55.67
79376;BME280;68846;53.150;18.136;2023-04-24T10:51:49;99857.12;;;18.65;55.17
79376;BME280;68846;53.150;18.136;2023-04-24T10:54:33;99853.30;;;18.72;55.11
79376;BME280;68846;53.150;18.136;2023-04-24T11:02:36;99847.19;;;18.94;54.60
79376;BME280;68846;53.150;18.136;2023-04-24T11:05:04;99841.70;;;18.97;55.06
79376;BME280;68846;53.150;18.136;2023-04-24T11:11:03;99858.34;;;19.20;54.97
79376;BME280;68846;53.150;18.136;2023-04-24T11:19:07;99859.07;;;19.20;54.51
79376;BME280;68846;53.150;18.136;2023-04-24T11:21:58;99857.73;;;19.17;54.09
79376;BME280;68846;53.150;18.136;2023-04-24T11:24:39;99863.30;;;19.12;53.76
79376;BME280;68846;53.150;18.136;2023-04-24T11:27:21;99867.92;;;19.07;54.14
79376;BME280;68846;53.150;18.136;2023-04-24T11:32:29;99873.23;;;19.13;54.47
79376;BME280;68846;53.150;18.136;2023-04-24T11:35:00;99867.98;;;19.20;53.83
79376;BME280;68846;53.150;18.136;2023-04-24T11:37:36;99863.19;;;19.24;53.22
79376;BME280;68846;53.150;18.136;2023-04-24T11:40:05;99869.60;;;19.29;53.58
79376;BME280;68846;53.150;18.136;2023-04-24T11:42:34;99870.58;;;19.36;53.41
79376;BME280;68846;53.150;18.136;2023-04-24T11:45:01;99863.79;;;19.45;52.82
79376;BME280;68846;53.150;18.136;2023-04-24T11:47:32;99861.07;;;19.56;53.32
79376;BME280;68846;53.150;18.136;2023-04-24T11:50:03;99858.98;;;19.69;53.51
79376;BME280;68846;53.150;18.136;2023-04-24T11:52:30;99857.21;;;19.82;53.37
79376;BME280;68846;53.150;18.136;2023-04-24T11:54:56;99860.27;;;19.95;52.87
79376;BME280;68846;53.150;18.136;2023-04-24T11:57:24;99864.58;;;20.07;52.54
79376;BME280;68846;53.150;18.136;2023-04-24T11:59:53;99854.35;;;20.13;52.03
79376;BME280;68846;53.150;18.136;2023-04-24T12:02:23;99860.40;;;20.26;51.80
79376;BME280;68846;53.150;18.136;2023-04-24T12:04:51;99851.44;;;20.26;51.25
79376;BME280;68846;53.150;18.136;2023-04-24T12:07:17;99857.29;;;20.32;51.11
79376;BME280;68846;53.150;18.136;2023-04-24T12:09:47;99859.16;;;20.38;51.33
79376;BME280;68846;53.150;18.136;2023-04-24T12:12:16;99847.98;;;20.42;50.74
79376;BME280;68846;53.150;18.136;2023-04-24T12:14:54;99848.81;;;20.47;50.88
79376;BME280;68846;53.150;18.136;2023-04-24T12:17:32;99851.30;;;20.48;51.10
79376;BME280;68846;53.150;18.136;2023-04-24T12:20:04;99849.42;;;20.45;50.30
79376;BME280;68846;53.150;18.136;2023-04-24T12:22:47;99843.29;;;20.47;50.68
79376;BME280;68846;53.150;18.136;2023-04-24T12:25:15;99840.67;;;20.62;50.78
79376;BME280;68846;53.150;18.136;2023-04-24T12:27:42;99829.02;;;20.78;50.66
79376;BME280;68846;53.150;18.136;2023-04-24T12:30:14;99827.40;;;20.90;50.07
79376;BME280;68846;53.150;18.136;2023-04-24T12:32:45;99827.55;;;20.99;49.21
79376;BME280;68846;53.150;18.136;2023-04-24T12:35:13;99822.79;;;21.13;49.43
79376;BME280;68846;53.150;18.136;2023-04-24T12:37:42;99815.21;;;21.34;48.09
79376;BME280;68846;53.150;18.136;2023-04-24T12:40:10;99813.27;;;21.60;47.70
79376;BME280;68846;53.150;18.136;2023-04-24T12:42:50;99809.00;;;21.88;46.11
79376;BME280;68846;53.150;18.136;2023-04-24T12:45:18;99813.19;;;22.09;45.88
79376;BME280;68846;53.150;18.136;2023-04-24T12:47:45;99809.23;;;22.30;44.85
79376;BME280;68846;53.150;18.136;2023-04-24T12:50:13;99810.55;;;22.54;43.59
79376;BME280;68846;53.150;18.136;2023-04-24T12:52:40;99796.42;;;22.70;43.18
79376;BME280;68846;53.150;18.136;2023-04-24T12:55:07;99801.86;;;22.93;42.51
79376;BME280;68846;53.150;18.136;2023-04-24T12:57:34;99804.77;;;23.03;39.76
79376;BME280;68846;53.150;18.136;2023-04-24T13:00:02;99797.13;;;22.87;39.93
79376;BME280;68846;53.150;18.136;2023-04-24T13:02:29;99797.54;;;22.76;39.40
79376;BME280;68846;53.150;18.136;2023-04-24T13:04:58;99795.69;;;22.60;40.43
79376;BME280;68846;53.150;18.136;2023-04-24T13:07:26;99796.59;;;22.46;40.15
79376;BME280;68846;53.150;18.136;2023-04-24T13:09:53;99795.75;;;22.28;40.68